Time;durP1;ratioP1;P1;durP2;ratioP2;P2;SDS_P1;SDS_P2;PMS_P1;PMS_P2;Temp;Humidity;BMP_temperature;BMP_pressure;BME280_temperature;BME280_humidity;BME280_pressure;Samples;Min_cycle;Max_cycle;Signal;HPM_P1;HPM_P2
2021/06/17 00:00:52;;;;;;;14.10;9.80;;;;;;;16.04;72.07;99333.49;4134558;84;21080;-78
2021/06/17 00:07:01;;;;;;;17.12;12.13;;;;;;;15.86;72.48;99330.84;4126577;84;21155;-77
2021/06/17 00:13:33;;;;;;;16.17;12.05;;;;;;;15.80;72.67;99327.52;4133908;85;21047;-77
2021/06/17 00:19:39;;;;;;;14.43;10.53;;;;;;;15.69;72.87;99334.47;4010131;85;21152;-77
2021/06/17 00:25:47;;;;;;;16.85;10.35;;;;;;;15.44;73.20;99336.53;4129259;85;21036;-77
2021/06/17 00:31:57;;;;;;;13.32;9.78;;;;;;;15.47;73.80;99335.73;4136136;85;21538;-78
2021/06/17 00:38:07;;;;;;;17.85;12.85;;;;;;;15.63;73.83;99331.91;4108027;85;21038;-77
2021/06/17 00:44:17;;;;;;;17.35;12.23;;;;;;;15.76;73.40;99330.29;4110175;85;21148;-77
2021/06/17 00:50:31;;;;;;;18.15;10.90;;;;;;;15.52;73.57;99336.67;4124438;85;21264;-78
2021/06/17 00:56:38;;;;;;;12.50;10.53;;;;;;;15.47;74.38;99338.49;4146952;84;21081;-77
2021/06/17 01:02:56;;;;;;;16.62;11.38;;;;;;;15.47;74.53;99331.59;4121555;85;21002;-78
2021/06/17 01:09:15;;;;;;;17.55;12.45;;;;;;;15.35;74.31;99341.05;4118926;85;21066;-77
2021/06/17 01:15:22;;;;;;;14.63;11.38;;;;;;;15.19;74.47;99337.16;4133844;84;21535;-77
2021/06/17 01:21:44;;;;;;;17.48;12.90;;;;;;;15.18;74.58;99342.45;4127813;85;21103;-77
2021/06/17 01:34:37;;;;;;;22.05;12.82;;;;;;;15.08;74.83;99344.66;4115608;85;21622;-78
2021/06/17 01:40:50;;;;;;;17.50;13.25;;;;;;;14.75;75.40;99336.19;4070417;85;21583;-78
2021/06/17 01:46:59;;;;;;;18.92;13.88;;;;;;;14.76;75.34;99331.48;4080942;84;21071;-78
2021/06/17 01:53:18;;;;;;;16.95;13.05;;;;;;;14.55;75.50;99327.36;4079873;85;21034;-78
2021/06/17 01:59:34;;;;;;;18.92;14.10;;;;;;;14.31;75.67;99330.28;4071613;84;21080;-78
2021/06/17 02:05:48;;;;;;;20.12;14.00;;;;;;;14.16;76.08;99323.93;4067305;85;20995;-79
2021/06/17 02:12:03;;;;;;;18.37;14.40;;;;;;;14.20;76.46;99329.45;4064932;84;21584;-77
2021/06/17 02:18:10;;;;;;;19.90;13.08;;;;;;;14.05;76.51;99330.00;4075091;84;21090;-77
2021/06/17 02:24:33;;;;;;;19.98;13.03;;;;;;;14.01;77.12;99331.17;4072667;85;21110;-77
2021/06/17 02:30:48;;;;;;;20.52;15.75;;;;;;;13.95;77.24;99329.98;4061378;85;21780;-78
2021/06/17 02:37:02;;;;;;;17.77;14.55;;;;;;;13.92;77.18;99328.77;4086858;85;21595;-76
2021/06/17 02:43:20;;;;;;;20.32;14.53;;;;;;;13.86;77.36;99330.91;4119903;83;21055;-78
2021/06/17 02:49:48;;;;;;;16.73;11.88;;;;;;;13.75;77.51;99333.63;4122611;84;21072;-79
2021/06/17 02:56:01;;;;;;;21.27;16.12;;;;;;;13.64;78.10;99331.42;4115737;84;21026;-77
2021/06/17 03:02:24;;;;;;;18.07;13.40;;;;;;;13.80;77.92;99333.27;4139127;83;21100;-77
2021/06/17 03:16:03;;;;;;;21.75;16.00;;;;;;;13.80;77.97;99342.09;4139948;85;21143;-78
2021/06/17 03:22:15;;;;;;;20.30;14.55;;;;;;;13.61;78.06;99341.83;4111133;85;21074;-77
2021/06/17 03:28:41;;;;;;;22.07;14.95;;;;;;;13.51;78.50;99345.34;4127757;84;21073;-78
2021/06/17 03:35:04;;;;;;;21.75;17.17;;;;;;;13.66;78.72;99348.92;4130225;84;21035;-78
2021/06/17 03:41:25;;;;;;;20.95;16.15;;;;;;;13.61;78.94;99351.45;4103314;85;21079;-78
2021/06/17 03:48:32;;;;;;;;;;;;;;;;;;;;;
2021/06/17 04:00:58;;;;;;;22.80;18.65;;;;;;;13.96;80.05;99361.82;3927049;88;21067;-78
2021/06/17 04:07:32;;;;;;;24.57;18.25;;;;;;;14.10;80.43;99353.02;3971364;88;21429;-77
2021/06/17 04:13:46;;;;;;;25.32;20.75;;;;;;;14.27;80.77;99344.63;4006442;88;21122;-77
2021/06/17 04:20:04;;;;;;;30.45;23.47;;;;;;;14.51;81.29;99350.77;4025563;87;21061;-77
2021/06/17 04:26:28;;;;;;;30.60;23.27;;;;;;;14.77;81.65;99347.62;3995729;88;21499;-78
2021/06/17 04:32:37;;;;;;;41.95;28.20;;;;;;;15.04;81.36;99339.72;3993910;89;21044;-78
2021/06/17 04:39:05;;;;;;;37.55;27.50;;;;;;;15.40;81.76;99343.43;3979387;87;21062;-77
2021/06/17 04:45:30;;;;;;;34.10;24.82;;;;;;;15.68;82.13;99350.81;3989576;88;21075;-78
2021/06/17 04:51:51;;;;;;;29.20;23.12;;;;;;;15.96;82.13;99343.03;4006754;86;21075;-77
2021/06/17 04:58:03;;;;;;;29.52;20.80;;;;;;;16.18;82.02;99340.31;3967096;88;21044;-78
2021/06/17 05:04:38;;;;;;;27.73;20.20;;;;;;;16.41;81.89;99352.41;4003412;88;21085;-78
2021/06/17 05:10:51;;;;;;;24.65;17.85;;;;;;;16.64;81.75;99359.59;3973124;88;21182;-78
2021/06/17 05:17:21;;;;;;;;;;;;;;;;;;;;;
2021/06/17 05:23:38;;;;;;;23.47;17.42;;;;;;;17.17;81.54;99363.28;3949962;87;21057;-78
2021/06/17 05:29:48;;;;;;;21.85;15.50;;;;;;;17.48;81.25;99375.27;3932598;88;21553;-78
2021/06/17 05:36:08;;;;;;;22.20;15.40;;;;;;;17.81;81.10;99379.42;3967100;88;21101;-78
2021/06/17 05:42:35;;;;;;;18.02;14.20;;;;;;;18.11;80.58;99371.14;4012652;86;21639;-78
2021/06/17 05:55:01;;;;;;;17.00;11.90;;;;;;;18.69;79.81;99380.43;3972988;87;21043;-77
2021/06/17 06:01:21;;;;;;;14.87;11.33;;;;;;;18.98;79.36;99381.36;4004118;88;21737;-79
2021/06/17 06:13:56;;;;;;;18.70;9.73;;;;;;;19.44;78.43;99402.18;3904147;88;21191;-79
2021/06/17 06:20:23;;;;;;;;;;;;;;;;;;;;;
2021/06/17 06:26:26;;;;;;;15.43;10.48;;;;;;;20.02;77.75;99399.46;4007469;88;21875;-81
2021/06/17 06:32:38;;;;;;;15.68;11.05;;;;;;;20.27;77.04;99395.39;3998025;88;21003;-79
2021/06/17 06:38:56;;;;;;;16.12;11.57;;;;;;;20.56;76.91;99396.34;3968118;87;21091;-77
2021/06/17 06:45:11;;;;;;;16.30;10.38;;;;;;;20.80;76.42;99399.14;4090042;86;21521;-78
2021/06/17 06:51:25;;;;;;;15.65;10.70;;;;;;;21.04;75.77;99401.38;4033027;86;21090;-78
2021/06/17 06:58:07;;;;;;;15.58;11.28;;;;;;;21.41;75.42;99395.84;4095926;86;21573;-80
2021/06/17 07:04:28;;;;;;;12.68;10.18;;;;;;;21.86;74.84;99401.44;4092764;84;21055;-79
2021/06/17 07:10:49;;;;;;;15.32;9.25;;;;;;;22.53;74.16;99408.64;4071768;86;21607;-78
2021/06/17 07:17:11;;;;;;;10.85;9.30;;;;;;;23.26;73.09;99419.47;4097248;84;21079;-79
2021/06/17 07:23:27;;;;;;;18.12;8.88;;;;;;;24.01;72.11;99414.25;4105428;86;22159;-78
2021/06/17 07:30:12;;;;;;;;;;;;;;;;;;;;;
2021/06/17 07:36:28;;;;;;;14.15;9.18;;;;;;;25.27;68.98;99407.91;3767647;91;21781;-79
2021/06/17 07:42:48;;;;;;;14.35;7.87;;;;;;;25.55;67.98;99398.94;4003336;84;21019;-79
2021/06/17 07:49:12;;;;;;;15.28;8.43;;;;;;;25.79;66.50;99395.04;4125914;85;21133;-79
2021/06/17 07:55:27;;;;;;;11.45;7.10;;;;;;;26.11;65.87;99404.25;4120565;85;21193;-79
2021/06/17 08:01:44;;;;;;;12.15;6.60;;;;;;;26.35;64.49;99397.34;4123210;83;21062;-79
2021/06/17 08:07:57;;;;;;;10.60;6.53;;;;;;;26.37;63.47;99399.06;4117584;83;21049;-79
2021/06/17 08:14:06;;;;;;;8.93;5.97;;;;;;;26.39;61.75;99394.38;4129554;83;21070;-82
2021/06/17 08:20:21;;;;;;;8.43;5.87;;;;;;;26.50;61.13;99398.87;4137022;83;21059;-78
2021/06/17 08:26:44;;;;;;;7.65;5.37;;;;;;;26.56;59.93;99402.59;4124951;83;21075;-80
2021/06/17 08:33:12;;;;;;;8.03;5.78;;;;;;;26.31;53.64;99402.33;4132207;83;21019;-79
2021/06/17 08:45:30;;;;;;;5.90;4.40;;;;;;;26.31;51.79;99402.33;3941800;87;21066;-78
2021/06/17 08:51:35;;;;;;;5.25;4.10;;;;;;;26.41;52.43;99403.88;4021949;85;21115;-80
2021/06/17 08:57:36;;;;;;;8.08;4.20;;;;;;;26.41;44.74;99412.91;4013346;88;21110;-80
2021/06/17 09:03:41;;;;;;;7.55;4.65;;;;;;;26.34;48.38;99412.64;4062958;85;21390;-78
2021/06/17 09:09:50;;;;;;;9.65;5.08;;;;;;;26.47;48.02;99418.06;4081362;84;21607;-80
2021/06/17 09:15:54;;;;;;;6.65;4.72;;;;;;;26.53;47.29;99422.55;4089337;85;21055;-79
2021/06/17 09:22:00;;;;;;;6.95;5.05;;;;;;;26.51;47.35;99429.28;4081966;84;21070;-79
2021/06/17 09:28:02;;;;;;;6.35;4.62;;;;;;;26.68;48.90;99420.67;4082981;85;21018;-82
2021/06/17 09:34:07;;;;;;;8.80;4.05;;;;;;;26.96;49.02;99415.71;4080668;84;21103;-82
2021/06/17 09:40:33;;;;;;;6.12;3.70;;;;;;;27.08;48.44;99416.90;4108363;85;21105;-80
2021/06/17 09:46:34;;;;;;;5.67;4.70;;;;;;;27.23;47.58;99404.34;4143022;83;21079;-80
2021/06/17 09:52:38;;;;;;;4.95;4.25;;;;;;;27.52;47.65;99405.87;4137150;85;21050;-80
2021/06/17 09:58:42;;;;;;;7.47;3.62;;;;;;;27.70;46.75;99405.76;4129366;85;21077;-80
2021/06/17 10:04:45;;;;;;;6.97;4.37;;;;;;;27.93;46.04;99402.15;4149946;85;21097;-80
2021/06/17 10:10:47;;;;;;;8.33;4.60;;;;;;;28.01;45.69;99394.89;4129315;83;21071;-80
2021/06/17 10:16:48;;;;;;;9.33;4.37;;;;;;;28.14;45.64;99408.69;4133666;84;21817;-80
2021/06/17 10:22:56;;;;;;;5.90;3.87;;;;;;;28.20;45.17;99395.48;4136278;85;21006;-80
2021/06/17 10:28:58;;;;;;;6.53;3.98;;;;;;;28.36;44.86;99387.97;4125203;85;21125;-80
2021/06/17 10:35:05;;;;;;;7.30;3.63;;;;;;;28.40;44.03;99389.33;4124244;84;21043;-80
2021/06/17 10:41:07;;;;;;;8.78;3.87;;;;;;;28.58;39.63;99384.91;4129222;84;21179;-81
2021/06/17 10:47:09;;;;;;;6.30;4.15;;;;;;;28.51;41.96;99379.69;4127102;85;21599;-80
2021/06/17 10:53:34;;;;;;;7.05;3.90;;;;;;;28.83;42.83;99374.42;4107295;85;21488;-80
2021/06/17 10:59:37;;;;;;;4.87;4.25;;;;;;;29.15;42.27;99382.48;4126128;85;21744;-81
2021/06/17 11:05:52;;;;;;;7.62;4.15;;;;;;;29.42;42.47;99372.21;4123673;85;21083;-80
2021/06/17 11:11:53;;;;;;;4.60;4.10;;;;;;;29.61;42.41;99373.48;4108790;84;21082;-83
2021/06/17 11:17:54;;;;;;;7.33;4.40;;;;;;;29.82;41.83;99369.37;4119095;85;21136;-77
2021/06/17 11:24:01;;;;;;;5.45;4.00;;;;;;;29.88;40.26;99371.62;4135457;84;21069;-79
2021/06/17 11:30:05;;;;;;;6.08;3.50;;;;;;;30.04;40.31;99371.03;4122551;84;21066;-79
2021/06/17 11:36:12;;;;;;;7.67;3.80;;;;;;;30.33;37.27;99366.61;4129457;84;21043;-78
2021/06/17 11:42:22;;;;;;;5.62;3.98;;;;;;;30.43;39.51;99362.31;4089125;85;21492;-79
2021/06/17 11:48:28;;;;;;;5.85;3.67;;;;;;;30.92;38.86;99357.55;4073531;85;21072;-78
2021/06/17 11:54:29;;;;;;;7.28;4.08;;;;;;;31.23;38.29;99355.42;4071022;85;21044;-79
2021/06/17 12:00:33;;;;;;;6.15;3.65;;;;;;;31.42;37.43;99366.48;4090226;85;21045;-80
2021/06/17 12:06:36;;;;;;;7.23;4.20;;;;;;;31.33;38.40;99351.78;4066095;84;21086;-79
2021/06/17 12:12:47;;;;;;;4.83;3.50;;;;;;;31.11;37.30;99339.70;4068637;85;21110;-80
2021/06/17 12:18:51;;;;;;;5.62;3.87;;;;;;;30.86;36.92;99343.40;4086918;85;21059;-80
2021/06/17 12:24:54;;;;;;;8.38;3.72;;;;;;;30.59;37.51;99336.13;4063840;85;21015;-79
2021/06/17 12:30:59;;;;;;;7.28;3.67;;;;;;;30.30;37.14;99337.92;4075732;85;21532;-80
2021/06/17 12:37:06;;;;;;;6.83;4.15;;;;;;;29.95;36.79;99335.13;4079584;85;21063;-78
2021/06/17 12:43:14;;;;;;;5.42;4.00;;;;;;;29.58;37.53;99335.61;4051357;85;21000;-81
2021/06/17 12:55:40;;;;;;;6.10;4.60;;;;;;;29.15;38.00;99337.37;4033648;87;21077;-80
2021/06/17 13:01:48;;;;;;;8.95;5.00;;;;;;;28.91;38.28;99326.91;4044210;87;20980;-79
2021/06/17 13:08:07;;;;;;;6.58;4.60;;;;;;;28.68;38.25;99322.98;4050240;87;21091;-82
2021/06/17 13:14:09;;;;;;;5.75;4.35;;;;;;;28.44;38.85;99324.38;4019061;86;21119;-78
2021/06/17 13:20:18;;;;;;;7.45;5.00;;;;;;;28.34;39.01;99322.30;4050647;85;21031;-78
2021/06/17 13:26:21;;;;;;;6.10;5.17;;;;;;;28.29;38.62;99328.61;4041412;85;21048;-80
2021/06/17 13:32:24;;;;;;;6.45;5.20;;;;;;;28.27;39.68;99331.77;4046668;85;21092;-80
2021/06/17 13:38:26;;;;;;;9.35;5.58;;;;;;;28.22;40.35;99333.86;4058207;85;21020;-80
2021/06/17 13:44:27;;;;;;;7.30;5.12;;;;;;;28.26;40.63;99334.42;4095357;86;21615;-81
2021/06/17 13:50:29;;;;;;;8.08;5.53;;;;;;;28.17;40.68;99327.50;4107374;86;21052;-82
2021/06/17 13:56:30;;;;;;;7.15;5.47;;;;;;;28.10;41.08;99333.50;4098254;86;21119;-79
2021/06/17 14:02:31;;;;;;;10.05;6.85;;;;;;;28.09;41.33;99323.52;4105484;86;21084;-80
2021/06/17 14:08:34;;;;;;;12.53;6.17;;;;;;;28.05;41.68;99325.11;4106495;86;21144;-78
2021/06/17 14:14:36;;;;;;;7.12;5.60;;;;;;;28.02;41.71;99321.11;4104143;86;21671;-80
2021/06/17 14:20:40;;;;;;;7.03;5.78;;;;;;;28.01;41.80;99319.53;4096026;86;21035;-79
2021/06/17 14:26:43;;;;;;;6.50;5.50;;;;;;;28.02;41.90;99309.84;4114288;86;21759;-79
2021/06/17 14:32:47;;;;;;;6.08;5.47;;;;;;;28.05;42.26;99303.25;4095464;86;21023;-79
2021/06/17 14:38:48;;;;;;;9.18;5.78;;;;;;;28.01;42.20;99306.25;4103498;85;20953;-78
2021/06/17 14:44:50;;;;;;;8.75;5.42;;;;;;;27.93;41.82;99307.89;4129722;84;21104;-78
2021/06/17 14:51:00;;;;;;;8.23;6.12;;;;;;;27.83;42.25;99315.48;4133102;85;21015;-79
2021/06/17 14:57:05;;;;;;;9.18;5.40;;;;;;;27.68;41.91;99304.83;4131454;85;21099;-81
2021/06/17 15:03:06;;;;;;;9.55;5.62;;;;;;;27.63;42.01;99298.63;4139282;85;21066;-78
2021/06/17 15:09:09;;;;;;;7.33;5.62;;;;;;;27.68;41.91;99291.55;4133565;85;21090;-78
2021/06/17 15:15:13;;;;;;;9.78;5.92;;;;;;;27.67;42.26;99288.60;4126612;84;21062;-78
2021/06/17 15:21:15;;;;;;;9.13;6.00;;;;;;;27.59;42.04;99281.16;4144805;85;21049;-78
2021/06/17 15:27:17;;;;;;;6.95;5.67;;;;;;;27.49;41.75;99281.72;4127956;85;21015;-78
2021/06/17 15:33:18;;;;;;;9.93;5.78;;;;;;;27.35;41.98;99274.83;4141870;85;21058;-77
2021/06/17 15:39:21;;;;;;;8.23;5.70;;;;;;;27.33;41.80;99280.14;4143642;84;21070;-80
2021/06/17 15:45:22;;;;;;;10.72;5.40;;;;;;;27.27;41.77;99275.66;4072198;85;21095;-79
2021/06/17 15:51:24;;;;;;;7.55;5.47;;;;;;;27.22;41.94;99279.89;4070880;85;21022;-78
2021/06/17 15:57:25;;;;;;;7.58;5.55;;;;;;;27.10;41.77;99279.52;4074295;84;21086;-83
2021/06/17 16:03:27;;;;;;;7.15;5.30;;;;;;;26.83;41.49;99275.49;4073995;85;21086;-78
2021/06/17 16:09:28;;;;;;;10.53;5.60;;;;;;;26.59;41.42;99272.50;4068484;85;21067;-77
2021/06/17 16:15:30;;;;;;;7.35;5.60;;;;;;;26.49;41.40;99273.16;4071428;85;21139;-78
2021/06/17 16:21:31;;;;;;;8.83;5.75;;;;;;;26.46;41.55;99270.52;4078299;85;21118;-78
2021/06/17 16:27:32;;;;;;;5.37;4.85;;;;;;;26.37;41.91;99275.57;4073401;85;21079;-78
2021/06/17 16:33:35;;;;;;;5.80;5.03;;;;;;;26.31;41.48;99280.25;4064486;85;21071;-79
2021/06/17 16:39:36;;;;;;;5.58;5.00;;;;;;;25.97;41.99;99258.22;4074928;83;21076;-77
2021/06/17 16:45:38;;;;;;;5.90;4.85;;;;;;;25.97;41.99;99258.22;4130274;85;21039;-81
2021/06/17 16:51:41;;;;;;;6.90;5.10;;;;;;;26.04;41.95;99276.92;4129408;85;21018;-78
2021/06/17 16:57:45;;;;;;;5.62;4.55;;;;;;;25.92;42.03;99279.89;4129384;85;21031;-80
2021/06/17 17:03:46;;;;;;;7.17;4.62;;;;;;;25.87;41.39;99286.91;4128497;85;21109;-78
2021/06/17 17:09:50;;;;;;;4.95;4.20;;;;;;;25.72;41.90;99291.63;4138151;85;21055;-78
2021/06/17 17:15:53;;;;;;;6.03;4.22;;;;;;;25.62;41.77;99293.52;4133915;84;21445;-79
2021/06/17 17:21:57;;;;;;;9.78;4.70;;;;;;;25.53;41.93;99294.29;4134212;85;21453;-77
2021/06/17 17:27:58;;;;;;;8.50;4.97;;;;;;;25.42;42.12;99293.98;4129756;85;21220;-78
2021/06/17 17:33:59;;;;;;;9.08;5.30;;;;;;;25.32;42.20;99298.02;4129096;85;21050;-79
2021/06/17 17:40:01;;;;;;;5.92;4.25;;;;;;;25.22;42.51;99302.05;4118698;84;21115;-78
2021/06/17 17:46:03;;;;;;;5.30;4.53;;;;;;;25.17;42.40;99310.28;4074866;85;21075;-78
2021/06/17 17:52:05;;;;;;;7.28;4.50;;;;;;;25.05;42.70;99309.81;4070738;85;21134;-78
2021/06/17 17:58:07;;;;;;;5.95;4.80;;;;;;;24.94;42.91;99311.66;4003234;87;21083;-78
2021/06/17 18:04:09;;;;;;;7.50;4.78;;;;;;;24.83;43.04;99312.73;4063266;85;21734;-77
2021/06/17 18:10:14;;;;;;;7.62;5.00;;;;;;;24.69;43.22;99323.11;4080394;85;21107;-79
2021/06/17 18:16:45;;;;;;;7.40;4.70;;;;;;;24.56;43.14;99323.80;4069677;85;21115;-77
2021/06/17 18:22:58;;;;;;;6.47;4.50;;;;;;;24.39;43.51;99331.67;4080030;84;21110;-83
2021/06/17 18:29:09;;;;;;;6.97;5.17;;;;;;;24.26;43.82;99327.40;4078414;84;21043;-78
2021/06/17 18:35:22;;;;;;;5.47;4.90;;;;;;;24.09;44.09;99340.84;4075346;85;21027;-78
2021/06/17 18:41:35;;;;;;;7.20;4.33;;;;;;;23.92;44.50;99347.85;4075384;85;21576;-78
2021/06/17 18:47:38;;;;;;;5.78;4.03;;;;;;;23.77;44.62;99348.83;4041496;85;21023;-78
2021/06/17 18:53:51;;;;;;;7.78;4.60;;;;;;;23.59;45.05;99352.87;4031882;85;21089;-77
2021/06/17 18:59:56;;;;;;;8.13;4.62;;;;;;;23.43;45.75;99363.61;4045858;85;21036;-79
2021/06/17 19:06:04;;;;;;;7.90;4.30;;;;;;;23.28;45.75;99366.73;4039697;85;21132;-78
2021/06/17 19:12:14;;;;;;;6.40;4.77;;;;;;;23.16;46.05;99371.72;4039623;87;21596;-78
2021/06/17 19:18:36;;;;;;;6.00;4.92;;;;;;;23.03;46.59;99384.31;3965923;87;21012;-79
2021/06/17 19:24:48;;;;;;;8.75;4.97;;;;;;;22.87;47.15;99390.62;3826539;90;21139;-78
2021/06/17 19:31:03;;;;;;;8.53;5.17;;;;;;;22.72;47.40;99399.28;3847282;90;21458;-78
2021/06/17 19:37:20;;;;;;;8.75;5.40;;;;;;;22.61;47.77;99399.63;3841148;91;21042;-78
2021/06/17 19:43:25;;;;;;;9.05;6.22;;;;;;;22.46;48.41;99396.27;3902305;87;21087;-79
2021/06/17 19:49:36;;;;;;;8.63;5.30;;;;;;;22.35;48.77;99395.20;4113098;83;21047;-78
2021/06/17 20:02:02;;;;;;;6.50;5.40;;;;;;;22.10;49.27;99389.58;4134703;85;21110;-78
2021/06/17 20:08:06;;;;;;;10.43;5.08;;;;;;;22.06;49.92;99383.94;4109898;85;21088;-79
2021/06/17 20:14:16;;;;;;;9.38;5.33;;;;;;;21.92;49.94;99387.92;4127164;85;21030;-77
2021/06/17 20:20:26;;;;;;;6.40;5.40;;;;;;;21.77;50.32;99378.38;4130692;85;21114;-78
2021/06/17 20:33:03;;;;;;;7.58;5.80;;;;;;;21.60;51.11;99381.81;4113803;84;21019;-78
2021/06/17 20:39:06;;;;;;;8.10;5.22;;;;;;;21.43;51.82;99376.11;4117780;85;21286;-78
2021/06/17 20:45:10;;;;;;;8.98;5.70;;;;;;;21.26;52.29;99381.53;4138600;84;20992;-79
2021/06/17 20:51:17;;;;;;;7.22;5.47;;;;;;;21.18;52.52;99389.89;4145878;84;21055;-78
2021/06/17 20:57:19;;;;;;;8.80;5.45;;;;;;;21.07;52.81;99384.41;4141079;85;21007;-77
2021/06/17 21:03:21;;;;;;;8.73;5.67;;;;;;;20.91;53.08;99380.98;4135339;85;21102;-81
2021/06/17 21:09:31;;;;;;;9.45;5.58;;;;;;;20.71;53.62;99381.68;4139356;85;21083;-78
2021/06/17 21:15:32;;;;;;;9.50;5.80;;;;;;;20.62;54.37;99385.67;4133990;85;21128;-79
2021/06/17 21:21:44;;;;;;;8.18;5.80;;;;;;;20.33;54.45;99383.34;4137079;85;21047;-79
2021/06/17 21:27:48;;;;;;;7.05;5.72;;;;;;;20.01;55.02;99391.55;4142392;85;21091;-83
2021/06/17 21:33:51;;;;;;;10.03;7.15;;;;;;;19.85;56.56;99392.88;4132930;85;21000;-80
2021/06/17 21:40:03;;;;;;;9.38;6.87;;;;;;;19.74;56.59;99386.73;4137368;85;21742;-79
2021/06/17 21:46:11;;;;;;;9.18;6.78;;;;;;;19.43;57.40;99388.12;4138702;85;21109;-79
2021/06/17 21:52:14;;;;;;;10.60;6.58;;;;;;;19.31;57.98;99394.30;4135482;85;21070;-79
2021/06/17 21:58:25;;;;;;;9.15;6.67;;;;;;;18.91;58.73;99393.36;4128909;85;21043;-79
2021/06/17 22:04:41;;;;;;;14.60;7.40;;;;;;;18.92;59.09;99389.36;4127934;85;21547;-78
2021/06/17 22:10:42;;;;;;;17.92;8.40;;;;;;;18.62;59.74;99390.85;4135110;85;21075;-78
2021/06/17 22:16:44;;;;;;;17.25;9.60;;;;;;;18.37;60.20;99393.16;4135134;85;22025;-78
2021/06/17 22:22:48;;;;;;;13.90;7.58;;;;;;;18.31;60.36;99390.05;4114835;84;21127;-78
2021/06/17 22:29:00;;;;;;;14.20;7.47;;;;;;;18.08;60.81;99386.41;4145922;84;21274;-81
2021/06/17 22:35:12;;;;;;;14.33;7.83;;;;;;;17.90;61.54;99384.48;4107705;85;21050;-78
2021/06/17 22:41:13;;;;;;;10.25;7.12;;;;;;;17.78;61.68;99383.02;4130946;85;20988;-78
2021/06/17 22:47:15;;;;;;;10.20;6.62;;;;;;;17.74;62.01;99390.59;4096522;86;21060;-80
2021/06/17 22:53:20;;;;;;;10.98;7.10;;;;;;;17.80;62.57;99392.30;4110208;86;21017;-79
2021/06/17 22:59:24;;;;;;;9.83;6.72;;;;;;;17.77;62.85;99389.77;4104391;86;21023;-79
2021/06/17 23:05:31;;;;;;;10.50;7.00;;;;;;;17.96;63.44;99388.36;4109609;86;21027;-78
2021/06/17 23:11:40;;;;;;;10.72;7.65;;;;;;;17.55;62.88;99387.05;4099324;86;21078;-79
2021/06/17 23:17:43;;;;;;;10.78;7.87;;;;;;;17.24;63.77;99390.89;4100204;86;21612;-78
2021/06/17 23:23:55;;;;;;;9.23;6.97;;;;;;;17.07;65.05;99387.66;4105659;86;21588;-78
2021/06/17 23:29:59;;;;;;;10.50;7.20;;;;;;;16.89;65.35;99378.74;4104928;85;21028;-79
2021/06/17 23:36:06;;;;;;;10.98;7.58;;;;;;;16.86;65.45;99381.73;4117487;86;21007;-78
2021/06/17 23:42:11;;;;;;;12.78;6.92;;;;;;;16.67;65.73;99376.75;4117392;84;21016;-83
2021/06/17 23:48:17;;;;;;;12.78;7.72;;;;;;;16.43;65.82;99380.42;4069066;84;21428;-79
2021/06/17 23:54:23;;;;;;;10.90;7.65;;;;;;;16.16;66.88;99375.86;4069417;85;21155;-81
